Terminal Aerodrome Forecast
Issued by NWS

Home | Current Version | Previous Version | Text Only | Print | Product List | Glossary On
Versions: 1 2 3 4 5 6 7 8 9 10 11 12 13 14
000
FTUS44 KCRP 300500
TAFALI
TAF
KALI 300539Z 3006/0106 VRB03KT P6SM BKN090
     FM300800 VRB03KT 5SM BR SCT010 BKN100
      TEMPO 3009/3012 2SM BR
     FM301500 06007KT P6SM SCT025
     FM301800 07009KT P6SM VCTS SCT035CB
     FM302200 09012KT P6SM SCT040=

USA.gov is the U.S. government's official web portal to all federal, state and local government web resources and services.